sensor_id;sensor_type;location;lat;lon;timestamp;pressure;altitude;pressure_sealevel;temperature;humidity
6395;BME280;3230;42.588;23.358;2023-08-06T00:00:23;90132.91;;;17.71;100.00
6395;BME280;3230;42.588;23.358;2023-08-06T00:02:49;90136.59;;;17.67;100.00
6395;BME280;3230;42.588;23.358;2023-08-06T00:05:15;90113.59;;;17.55;100.00
6395;BME280;3230;42.588;23.358;2023-08-06T00:07:47;90102.41;;;17.62;100.00
6395;BME280;3230;42.588;23.358;2023-08-06T00:10:14;90099.69;;;17.74;100.00
6395;BME280;3230;42.588;23.358;2023-08-06T00:12:39;90092.00;;;17.85;100.00
6395;BME280;3230;42.588;23.358;2023-08-06T00:15:05;90086.19;;;17.79;100.00
6395;BME280;3230;42.588;23.358;2023-08-06T00:17:31;90103.31;;;17.53;100.00
6395;BME280;3230;42.588;23.358;2023-08-06T00:19:56;90094.63;;;17.69;100.00
6395;BME280;3230;42.588;23.358;2023-08-06T00:22:21;90089.59;;;17.64;100.00
6395;BME280;3230;42.588;23.358;2023-08-06T00:24:47;90083.59;;;17.67;100.00
6395;BME280;3230;42.588;23.358;2023-08-06T00:27:12;90078.13;;;17.59;100.00
6395;BME280;3230;42.588;23.358;2023-08-06T00:29:37;90065.50;;;17.69;100.00
6395;BME280;3230;42.588;23.358;2023-08-06T00:32:03;90074.56;;;17.84;100.00
6395;BME280;3230;42.588;23.358;2023-08-06T00:34:28;90073.00;;;17.67;100.00
6395;BME280;3230;42.588;23.358;2023-08-06T00:36:54;90063.69;;;17.89;100.00
6395;BME280;3230;42.588;23.358;2023-08-06T00:39:19;90063.69;;;17.73;100.00
6395;BME280;3230;42.588;23.358;2023-08-06T00:41:45;90070.34;;;17.67;100.00
6395;BME280;3230;42.588;23.358;2023-08-06T00:44:10;90076.00;;;17.65;100.00
6395;BME280;3230;42.588;23.358;2023-08-06T00:46:35;90068.13;;;17.53;100.00
6395;BME280;3230;42.588;23.358;2023-08-06T00:49:01;90052.59;;;17.67;100.00
6395;BME280;3230;42.588;23.358;2023-08-06T00:51:27;90062.31;;;17.63;100.00
6395;BME280;3230;42.588;23.358;2023-08-06T00:53:52;90051.63;;;17.59;100.00
6395;BME280;3230;42.588;23.358;2023-08-06T00:56:18;90043.94;;;17.54;100.00
6395;BME280;3230;42.588;23.358;2023-08-06T00:58:45;90046.59;;;17.70;100.00
6395;BME280;3230;42.588;23.358;2023-08-06T01:01:11;90033.28;;;17.67;100.00
6395;BME280;3230;42.588;23.358;2023-08-06T01:03:36;90034.63;;;17.61;100.00
6395;BME280;3230;42.588;23.358;2023-08-06T01:06:02;90034.53;;;17.57;100.00
6395;BME280;3230;42.588;23.358;2023-08-06T01:16:37;90018.31;;;17.58;100.00
6395;BME280;3230;42.588;23.358;2023-08-06T01:19:04;90015.59;;;17.71;100.00
6395;BME280;3230;42.588;23.358;2023-08-06T01:21:29;90005.16;;;17.62;100.00
6395;BME280;3230;42.588;23.358;2023-08-06T01:23:55;90000.19;;;17.61;100.00
6395;BME280;3230;42.588;23.358;2023-08-06T01:26:27;90005.56;;;17.48;100.00
6395;BME280;3230;42.588;23.358;2023-08-06T01:29:23;89986.38;;;17.67;100.00
6395;BME280;3230;42.588;23.358;2023-08-06T01:31:51;89994.41;;;17.55;100.00
6395;BME280;3230;42.588;23.358;2023-08-06T01:34:21;90000.91;;;17.57;100.00
6395;BME280;3230;42.588;23.358;2023-08-06T01:36:47;89994.13;;;17.44;100.00
6395;BME280;3230;42.588;23.358;2023-08-06T01:39:13;89990.38;;;17.77;100.00
6395;BME280;3230;42.588;23.358;2023-08-06T01:41:38;89989.34;;;17.50;100.00
6395;BME280;3230;42.588;23.358;2023-08-06T01:44:03;89980.91;;;17.44;100.00
6395;BME280;3230;42.588;23.358;2023-08-06T01:46:29;89989.88;;;17.55;100.00
6395;BME280;3230;42.588;23.358;2023-08-06T01:48:54;89982.19;;;17.50;100.00
6395;BME280;3230;42.588;23.358;2023-08-06T01:51:20;89985.94;;;17.49;100.00
6395;BME280;3230;42.588;23.358;2023-08-06T01:53:45;89991.31;;;17.69;100.00
6395;BME280;3230;42.588;23.358;2023-08-06T01:56:11;89989.00;;;17.83;100.00
6395;BME280;3230;42.588;23.358;2023-08-06T01:58:36;89982.09;;;17.79;100.00
6395;BME280;3230;42.588;23.358;2023-08-06T02:01:02;89988.41;;;17.74;100.00
6395;BME280;3230;42.588;23.358;2023-08-06T02:03:27;89988.41;;;17.74;100.00
6395;BME280;3230;42.588;23.358;2023-08-06T02:05:53;89986.19;;;17.76;100.00
6395;BME280;3230;42.588;23.358;2023-08-06T02:08:18;89997.28;;;17.66;100.00
6395;BME280;3230;42.588;23.358;2023-08-06T02:10:44;89989.88;;;17.71;100.00
6395;BME280;3230;42.588;23.358;2023-08-06T02:13:10;89990.22;;;17.70;100.00
6395;BME280;3230;42.588;23.358;2023-08-06T02:15:35;89986.78;;;17.69;100.00
6395;BME280;3230;42.588;23.358;2023-08-06T02:18:01;89994.72;;;17.53;100.00
6395;BME280;3230;42.588;23.358;2023-08-06T02:20:26;89995.06;;;17.52;100.00
6395;BME280;3230;42.588;23.358;2023-08-06T02:22:51;89992.06;;;17.53;100.00
6395;BME280;3230;42.588;23.358;2023-08-06T02:25:17;89993.34;;;17.59;100.00
6395;BME280;3230;42.588;23.358;2023-08-06T02:27:42;89986.09;;;17.72;100.00
6395;BME280;3230;42.588;23.358;2023-08-06T02:30:07;89983.81;;;17.87;100.00
6395;BME280;3230;42.588;23.358;2023-08-06T02:32:33;89984.91;;;17.86;100.00
6395;BME280;3230;42.588;23.358;2023-08-06T02:35:01;90002.94;;;17.80;100.00
6395;BME280;3230;42.588;23.358;2023-08-06T02:37:26;90028.22;;;17.78;100.00
6395;BME280;3230;42.588;23.358;2023-08-06T02:39:51;90013.03;;;17.90;100.00
6395;BME280;3230;42.588;23.358;2023-08-06T02:42:16;90020.03;;;17.67;100.00
6395;BME280;3230;42.588;23.358;2023-08-06T02:44:42;90022.94;;;17.62;100.00
6395;BME280;3230;42.588;23.358;2023-08-06T02:47:07;90025.50;;;17.74;100.00
6395;BME280;3230;42.588;23.358;2023-08-06T02:49:32;90010.31;;;17.71;100.00
6395;BME280;3230;42.588;23.358;2023-08-06T02:51:57;89977.56;;;17.63;100.00
6395;BME280;3230;42.588;23.358;2023-08-06T02:54:23;89970.63;;;17.58;100.00
6395;BME280;3230;42.588;23.358;2023-08-06T02:56:48;89994.97;;;17.48;100.00
6395;BME280;3230;42.588;23.358;2023-08-06T02:59:14;90025.03;;;17.40;100.00
6395;BME280;3230;42.588;23.358;2023-08-06T03:01:39;90033.69;;;17.37;100.00
6395;BME280;3230;42.588;23.358;2023-08-06T03:04:05;90010.34;;;17.42;100.00
6395;BME280;3230;42.588;23.358;2023-08-06T03:06:30;89965.41;;;17.46;100.00
6395;BME280;3230;42.588;23.358;2023-08-06T03:08:56;89950.50;;;17.38;100.00
6395;BME280;3230;42.588;23.358;2023-08-06T03:11:21;89966.88;;;17.27;100.00
6395;BME280;3230;42.588;23.358;2023-08-06T03:13:47;90007.41;;;17.32;100.00
6395;BME280;3230;42.588;23.358;2023-08-06T03:16:12;89994.91;;;17.45;100.00
6395;BME280;3230;42.588;23.358;2023-08-06T03:18:41;89960.03;;;17.58;100.00
6395;BME280;3230;42.588;23.358;2023-08-06T03:21:06;89964.06;;;17.68;100.00
6395;BME280;3230;42.588;23.358;2023-08-06T03:23:31;89992.06;;;17.53;100.00
6395;BME280;3230;42.588;23.358;2023-08-06T03:26:03;90005.41;;;17.57;100.00
6395;BME280;3230;42.588;23.358;2023-08-06T03:28:28;90013.25;;;17.53;100.00
6395;BME280;3230;42.588;23.358;2023-08-06T03:31:00;90014.81;;;17.54;100.00
6395;BME280;3230;42.588;23.358;2023-08-06T03:33:26;89989.59;;;17.77;100.00
6395;BME280;3230;42.588;23.358;2023-08-06T03:35:51;89990.31;;;17.73;100.00
6395;BME280;3230;42.588;23.358;2023-08-06T03:38:16;90003.28;;;17.63;100.00
6395;BME280;3230;42.588;23.358;2023-08-06T03:40:42;90019.00;;;17.55;100.00
6395;BME280;3230;42.588;23.358;2023-08-06T03:43:08;90023.59;;;17.58;100.00
6395;BME280;3230;42.588;23.358;2023-08-06T03:45:33;90030.88;;;17.46;100.00
6395;BME280;3230;42.588;23.358;2023-08-06T03:47:58;90027.88;;;17.47;100.00
6395;BME280;3230;42.588;23.358;2023-08-06T03:50:24;90031.53;;;17.58;100.00
6395;BME280;3230;42.588;23.358;2023-08-06T03:52:49;90041.56;;;17.49;100.00
6395;BME280;3230;42.588;23.358;2023-08-06T03:55:14;90051.06;;;17.66;100.00
6395;BME280;3230;42.588;23.358;2023-08-06T03:57:40;90061.84;;;17.73;100.00
6395;BME280;3230;42.588;23.358;2023-08-06T04:00:05;90060.09;;;17.65;100.00
6395;BME280;3230;42.588;23.358;2023-08-06T04:02:31;90062.66;;;17.62;100.00
6395;BME280;3230;42.588;23.358;2023-08-06T04:04:56;90051.63;;;17.59;100.00
6395;BME280;3230;42.588;23.358;2023-08-06T04:07:22;90035.41;;;17.61;100.00
6395;BME280;3230;42.588;23.358;2023-08-06T04:09:58;90025.59;;;17.62;100.00
6395;BME280;3230;42.588;23.358;2023-08-06T04:12:24;90018.66;;;17.73;100.00
6395;BME280;3230;42.588;23.358;2023-08-06T04:14:51;90017.47;;;17.70;100.00
6395;BME280;3230;42.588;23.358;2023-08-06T04:17:20;90040.00;;;17.48;100.00
6395;BME280;3230;42.588;23.358;2023-08-06T04:19:50;90047.69;;;17.53;100.00
6395;BME280;3230;42.588;23.358;2023-08-06T04:22:15;90027.88;;;17.63;100.00
6395;BME280;3230;42.588;23.358;2023-08-06T04:24:41;90021.75;;;17.59;100.00
6395;BME280;3230;42.588;23.358;2023-08-06T04:27:08;90028.59;;;17.76;100.00
6395;BME280;3230;42.588;23.358;2023-08-06T04:29:33;90034.16;;;17.87;100.00
6395;BME280;3230;42.588;23.358;2023-08-06T04:31:59;90011.13;;;17.91;100.00
6395;BME280;3230;42.588;23.358;2023-08-06T04:34:24;90006.88;;;17.86;100.00
6395;BME280;3230;42.588;23.358;2023-08-06T04:36:49;90005.09;;;17.74;100.00
6395;BME280;3230;42.588;23.358;2023-08-06T04:39:15;89999.63;;;17.83;100.00
6395;BME280;3230;42.588;23.358;2023-08-06T04:41:40;89987.47;;;17.82;100.00
6395;BME280;3230;42.588;23.358;2023-08-06T04:44:06;89990.47;;;17.97;100.00
6395;BME280;3230;42.588;23.358;2023-08-06T04:46:31;89981.59;;;18.05;100.00
6395;BME280;3230;42.588;23.358;2023-08-06T04:48:56;89976.94;;;18.18;100.00
6395;BME280;3230;42.588;23.358;2023-08-06T04:51:22;89961.13;;;18.41;100.00
6395;BME280;3230;42.588;23.358;2023-08-06T04:53:47;89950.81;;;18.56;100.00
6395;BME280;3230;42.588;23.358;2023-08-06T04:56:12;89947.34;;;18.71;100.00
6395;BME280;3230;42.588;23.358;2023-08-06T04:58:38;89953.63;;;18.82;100.00
6395;BME280;3230;42.588;23.358;2023-08-06T05:01:06;89957.59;;;20.28;100.00
6395;BME280;3230;42.588;23.358;2023-08-06T05:03:31;89962.28;;;20.99;100.00
6395;BME280;3230;42.588;23.358;2023-08-06T05:05:56;89974.75;;;23.52;99.18
6395;BME280;3230;42.588;23.358;2023-08-06T05:08:22;89987.94;;;26.63;85.85
6395;BME280;3230;42.588;23.358;2023-08-06T05:10:47;89987.03;;;28.87;67.45
6395;BME280;3230;42.588;23.358;2023-08-06T05:13:13;89979.69;;;29.88;58.92
6395;BME280;3230;42.588;23.358;2023-08-06T05:15:38;89982.34;;;27.89;64.97
6395;BME280;3230;42.588;23.358;2023-08-06T05:18:07;89985.66;;;26.16;74.36
6395;BME280;3230;42.588;23.358;2023-08-06T05:20:36;89971.34;;;24.78;80.14
6395;BME280;3230;42.588;23.358;2023-08-06T05:23:02;89966.78;;;24.57;81.46
6395;BME280;3230;42.588;23.358;2023-08-06T05:25:27;89962.56;;;23.66;87.80
6395;BME280;3230;42.588;23.358;2023-08-06T05:27:53;89959.31;;;22.98;91.06
6395;BME280;3230;42.588;23.358;2023-08-06T05:30:18;89963.13;;;22.97;92.33
6395;BME280;3230;42.588;23.358;2023-08-06T05:32:43;89971.03;;;22.76;93.23
6395;BME280;3230;42.588;23.358;2023-08-06T05:35:09;89958.81;;;22.12;96.13
6395;BME280;3230;42.588;23.358;2023-08-06T05:37:34;89952.94;;;21.50;100.00
6395;BME280;3230;42.588;23.358;2023-08-06T05:40:00;89963.13;;;21.03;100.00
6395;BME280;3230;42.588;23.358;2023-08-06T05:42:26;89967.00;;;21.09;100.00
6395;BME280;3230;42.588;23.358;2023-08-06T05:44:52;89952.88;;;20.75;100.00
6395;BME280;3230;42.588;23.358;2023-08-06T05:47:17;89964.56;;;20.97;100.00
6395;BME280;3230;42.588;23.358;2023-08-06T05:49:42;89961.75;;;20.83;100.00
6395;BME280;3230;42.588;23.358;2023-08-06T05:52:08;89966.31;;;20.55;100.00
6395;BME280;3230;42.588;23.358;2023-08-06T05:54:33;89973.19;;;20.29;100.00
6395;BME280;3230;42.588;23.358;2023-08-06T05:56:58;89967.34;;;20.47;100.00
6395;BME280;3230;42.588;23.358;2023-08-06T05:59:24;89968.34;;;20.35;100.00
6395;BME280;3230;42.588;23.358;2023-08-06T06:01:49;89970.78;;;20.21;100.00
6395;BME280;3230;42.588;23.358;2023-08-06T06:04:14;89980.78;;;20.31;100.00
6395;BME280;3230;42.588;23.358;2023-08-06T06:06:40;89981.88;;;20.80;100.00
6395;BME280;3230;42.588;23.358;2023-08-06T06:09:07;89988.66;;;21.08;100.00
6395;BME280;3230;42.588;23.358;2023-08-06T06:11:32;89995.47;;;21.39;100.00
6395;BME280;3230;42.588;23.358;2023-08-06T06:13:57;90006.81;;;21.33;100.00
6395;BME280;3230;42.588;23.358;2023-08-06T06:16:23;90004.81;;;20.92;100.00
6395;BME280;3230;42.588;23.358;2023-08-06T06:18:48;90018.41;;;21.14;100.00
6395;BME280;3230;42.588;23.358;2023-08-06T06:21:13;90017.69;;;20.86;100.00
6395;BME280;3230;42.588;23.358;2023-08-06T06:23:39;90021.06;;;21.48;100.00
6395;BME280;3230;42.588;23.358;2023-08-06T06:26:04;90012.47;;;22.55;99.73
6395;BME280;3230;42.588;23.358;2023-08-06T06:28:29;90014.81;;;23.34;94.93
6395;BME280;3230;42.588;23.358;2023-08-06T06:31:00;90032.22;;;24.67;93.30
6395;BME280;3230;42.588;23.358;2023-08-06T06:33:26;90038.34;;;26.97;80.02
6395;BME280;3230;42.588;23.358;2023-08-06T06:35:51;90052.59;;;28.29;71.20
6395;BME280;3230;42.588;23.358;2023-08-06T06:38:16;90063.53;;;28.73;63.95
6395;BME280;3230;42.588;23.358;2023-08-06T06:40:42;90054.22;;;26.85;70.04
6395;BME280;3230;42.588;23.358;2023-08-06T06:43:07;90058.75;;;26.42;71.66
6395;BME280;3230;42.588;23.358;2023-08-06T06:45:32;90049.69;;;25.29;76.58
6395;BME280;3230;42.588;23.358;2023-08-06T06:47:58;90053.63;;;24.38;85.56
6395;BME280;3230;42.588;23.358;2023-08-06T06:50:23;90062.44;;;24.71;82.40
6395;BME280;3230;42.588;23.358;2023-08-06T06:52:49;90061.69;;;24.70;81.59
6395;BME280;3230;42.588;23.358;2023-08-06T06:55:14;90074.66;;;24.50;81.53
6395;BME280;3230;42.588;23.358;2023-08-06T06:57:39;90064.88;;;23.52;88.46
6395;BME280;3230;42.588;23.358;2023-08-06T07:00:05;90063.69;;;23.42;90.77
6395;BME280;3230;42.588;23.358;2023-08-06T07:02:31;90073.84;;;23.11;93.78
6395;BME280;3230;42.588;23.358;2023-08-06T07:04:56;90074.50;;;22.90;94.39
6395;BME280;3230;42.588;23.358;2023-08-06T07:07:22;90081.25;;;23.36;93.06
6395;BME280;3230;42.588;23.358;2023-08-06T07:09:47;90077.31;;;24.47;87.22
6395;BME280;3230;42.588;23.358;2023-08-06T07:12:12;90087.63;;;26.24;76.08
6395;BME280;3230;42.588;23.358;2023-08-06T07:14:38;90088.81;;;27.93;59.29
6395;BME280;3230;42.588;23.358;2023-08-06T07:17:04;90099.31;;;29.85;57.87
6395;BME280;3230;42.588;23.358;2023-08-06T07:19:30;90092.59;;;31.20;51.51
6395;BME280;3230;42.588;23.358;2023-08-06T07:21:55;90099.22;;;31.65;49.67
6395;BME280;3230;42.588;23.358;2023-08-06T07:24:21;90096.09;;;32.51;44.92
6395;BME280;3230;42.588;23.358;2023-08-06T07:26:46;90099.41;;;32.29;44.66
6395;BME280;3230;42.588;23.358;2023-08-06T07:29:12;90094.25;;;31.47;46.11
6395;BME280;3230;42.588;23.358;2023-08-06T07:31:37;90095.72;;;29.72;51.18
6395;BME280;3230;42.588;23.358;2023-08-06T07:34:03;90082.53;;;28.62;52.89
6395;BME280;3230;42.588;23.358;2023-08-06T07:36:28;90094.09;;;29.78;56.56
6395;BME280;3230;42.588;23.358;2023-08-06T07:38:53;90092.66;;;30.30;51.34
6395;BME280;3230;42.588;23.358;2023-08-06T07:41:25;90090.16;;;30.39;52.05
6395;BME280;3230;42.588;23.358;2023-08-06T07:43:50;90090.72;;;31.00;49.17
6395;BME280;3230;42.588;23.358;2023-08-06T07:46:15;90093.50;;;32.05;43.63
6395;BME280;3230;42.588;23.358;2023-08-06T07:48:41;90090.97;;;32.53;41.92
6395;BME280;3230;42.588;23.358;2023-08-06T07:51:06;90096.25;;;33.21;40.77
6395;BME280;3230;42.588;23.358;2023-08-06T07:53:32;90099.91;;;33.88;37.62
6395;BME280;3230;42.588;23.358;2023-08-06T07:55:57;90087.28;;;32.60;41.85
6395;BME280;3230;42.588;23.358;2023-08-06T07:58:24;90084.91;;;31.64;43.60
6395;BME280;3230;42.588;23.358;2023-08-06T08:00:50;90072.69;;;29.23;48.67
6395;BME280;3230;42.588;23.358;2023-08-06T08:03:16;90064.94;;;29.89;47.79
6395;BME280;3230;42.588;23.358;2023-08-06T08:05:42;90067.63;;;30.46;46.82
6395;BME280;3230;42.588;23.358;2023-08-06T08:08:08;90083.50;;;31.43;45.71
6395;BME280;3230;42.588;23.358;2023-08-06T08:10:34;90086.75;;;32.65;41.46
6395;BME280;3230;42.588;23.358;2023-08-06T08:13:01;90079.28;;;33.43;40.53
6395;BME280;3230;42.588;23.358;2023-08-06T08:15:28;90088.56;;;33.68;38.42
6395;BME280;3230;42.588;23.358;2023-08-06T08:17:54;90081.16;;;33.33;38.68
6395;BME280;3230;42.588;23.358;2023-08-06T08:20:20;90075.25;;;31.34;45.56
6395;BME280;3230;42.588;23.358;2023-08-06T08:22:45;90072.19;;;29.52;40.49
6395;BME280;3230;42.588;23.358;2023-08-06T08:25:11;90072.06;;;29.59;38.55
6395;BME280;3230;42.588;23.358;2023-08-06T08:27:36;90066.09;;;29.88;40.27
6395;BME280;3230;42.588;23.358;2023-08-06T08:30:01;90072.78;;;31.98;39.47
6395;BME280;3230;42.588;23.358;2023-08-06T08:32:27;90069.97;;;33.66;33.33
6395;BME280;3230;42.588;23.358;2023-08-06T08:34:52;90070.97;;;34.26;30.75
6395;BME280;3230;42.588;23.358;2023-08-06T08:37:18;90073.50;;;33.76;32.26
6395;BME280;3230;42.588;23.358;2023-08-06T08:39:44;90070.56;;;32.22;33.27
6395;BME280;3230;42.588;23.358;2023-08-06T08:42:10;90069.84;;;32.61;34.90
6395;BME280;3230;42.588;23.358;2023-08-06T08:44:36;90071.78;;;32.73;35.16
6395;BME280;3230;42.588;23.358;2023-08-06T08:47:07;90067.84;;;33.83;32.96
6395;BME280;3230;42.588;23.358;2023-08-06T08:49:36;90067.88;;;32.87;33.91
6395;BME280;3230;42.588;23.358;2023-08-06T08:52:03;90055.06;;;32.75;34.18
6395;BME280;3230;42.588;23.358;2023-08-06T08:54:32;90060.28;;;33.43;33.60
6395;BME280;3230;42.588;23.358;2023-08-06T08:56:58;90068.84;;;34.21;31.55
6395;BME280;3230;42.588;23.358;2023-08-06T08:59:24;90058.00;;;33.99;31.04
6395;BME280;3230;42.588;23.358;2023-08-06T09:01:49;90059.44;;;35.26;30.64
6395;BME280;3230;42.588;23.358;2023-08-06T09:04:17;90049.66;;;34.15;31.17
6395;BME280;3230;42.588;23.358;2023-08-06T09:06:46;90041.22;;;33.34;32.87
6395;BME280;3230;42.588;23.358;2023-08-06T09:09:14;90042.34;;;33.10;31.51
6395;BME280;3230;42.588;23.358;2023-08-06T09:11:44;90048.38;;;31.85;34.73
6395;BME280;3230;42.588;23.358;2023-08-06T09:14:11;90047.13;;;31.15;35.29
6395;BME280;3230;42.588;23.358;2023-08-06T09:16:37;90038.09;;;30.55;36.08
6395;BME280;3230;42.588;23.358;2023-08-06T09:19:10;90038.78;;;30.23;36.12
6395;BME280;3230;42.588;23.358;2023-08-06T09:21:41;90027.72;;;28.96;38.34
6395;BME280;3230;42.588;23.358;2023-08-06T09:24:15;90027.28;;;28.23;39.60
6395;BME280;3230;42.588;23.358;2023-08-06T09:26:43;90022.25;;;28.52;40.84
6395;BME280;3230;42.588;23.358;2023-08-06T09:29:10;90033.94;;;28.15;42.14
6395;BME280;3230;42.588;23.358;2023-08-06T09:31:46;90019.94;;;27.34;41.83
6395;BME280;3230;42.588;23.358;2023-08-06T09:34:15;90020.63;;;27.04;45.62
6395;BME280;3230;42.588;23.358;2023-08-06T09:36:49;90017.63;;;27.33;44.59
6395;BME280;3230;42.588;23.358;2023-08-06T09:39:19;90012.31;;;26.91;42.76
6395;BME280;3230;42.588;23.358;2023-08-06T09:41:46;90014.38;;;26.72;43.59
6395;BME280;3230;42.588;23.358;2023-08-06T09:44:18;90010.91;;;26.26;46.44
6395;BME280;3230;42.588;23.358;2023-08-06T09:46:48;90011.41;;;26.10;44.11
6395;BME280;3230;42.588;23.358;2023-08-06T09:49:15;90025.25;;;26.01;45.75
6395;BME280;3230;42.588;23.358;2023-08-06T09:51:40;90025.50;;;26.22;49.79
6395;BME280;3230;42.588;23.358;2023-08-06T09:54:07;90030.31;;;26.94;47.53
6395;BME280;3230;42.588;23.358;2023-08-06T09:56:36;90030.69;;;26.96;45.44
6395;BME280;3230;42.588;23.358;2023-08-06T09:59:04;90016.66;;;26.74;46.74
6395;BME280;3230;42.588;23.358;2023-08-06T10:01:33;90021.41;;;26.59;47.51
6395;BME280;3230;42.588;23.358;2023-08-06T10:04:00;90026.31;;;26.18;47.37
6395;BME280;3230;42.588;23.358;2023-08-06T10:06:26;90033.78;;;26.45;47.46
6395;BME280;3230;42.588;23.358;2023-08-06T10:08:52;90042.50;;;26.60;45.02
6395;BME280;3230;42.588;23.358;2023-08-06T10:11:21;90044.03;;;26.61;45.20
6395;BME280;3230;42.588;23.358;2023-08-06T10:13:47;90046.44;;;26.94;44.36
6395;BME280;3230;42.588;23.358;2023-08-06T10:16:13;90043.22;;;27.10;42.61
6395;BME280;3230;42.588;23.358;2023-08-06T10:18:40;90041.06;;;27.32;41.73
6395;BME280;3230;42.588;23.358;2023-08-06T10:21:09;90041.88;;;26.91;44.12
6395;BME280;3230;42.588;23.358;2023-08-06T10:23:36;90036.50;;;26.91;42.52
6395;BME280;3230;42.588;23.358;2023-08-06T10:26:03;90057.06;;;27.08;41.06
6395;BME280;3230;42.588;23.358;2023-08-06T10:28:38;90057.09;;;27.05;44.17
6395;BME280;3230;42.588;23.358;2023-08-06T10:31:05;90063.50;;;27.14;43.10
6395;BME280;3230;42.588;23.358;2023-08-06T10:33:44;90060.09;;;26.69;43.12
6395;BME280;3230;42.588;23.358;2023-08-06T10:36:11;90072.13;;;26.49;43.42
6395;BME280;3230;42.588;23.358;2023-08-06T10:38:47;90080.00;;;26.18;43.83
6395;BME280;3230;42.588;23.358;2023-08-06T10:41:36;90072.66;;;26.26;44.37
6395;BME280;3230;42.588;23.358;2023-08-06T10:44:07;90067.47;;;25.90;46.64
6395;BME280;3230;42.588;23.358;2023-08-06T10:46:33;90060.19;;;25.94;45.88
6395;BME280;3230;42.588;23.358;2023-08-06T10:48:59;90077.53;;;25.72;44.10
6395;BME280;3230;42.588;23.358;2023-08-06T10:51:25;90079.47;;;25.71;45.46
6395;BME280;3230;42.588;23.358;2023-08-06T10:53:51;90081.81;;;25.54;47.45
6395;BME280;3230;42.588;23.358;2023-08-06T10:56:18;90075.00;;;25.17;48.09
6395;BME280;3230;42.588;23.358;2023-08-06T10:58:44;90087.25;;;25.11;49.06
6395;BME280;3230;42.588;23.358;2023-08-06T11:01:11;90088.84;;;24.76;49.61
6395;BME280;3230;42.588;23.358;2023-08-06T11:03:37;90085.78;;;24.74;49.67
6395;BME280;3230;42.588;23.358;2023-08-06T11:06:03;90087.69;;;24.55;49.63
6395;BME280;3230;42.588;23.358;2023-08-06T11:08:34;90087.28;;;24.39;51.62
6395;BME280;3230;42.588;23.358;2023-08-06T11:11:10;90080.78;;;24.33;51.36
6395;BME280;3230;42.588;23.358;2023-08-06T11:13:38;90093.78;;;24.38;54.69
6395;BME280;3230;42.588;23.358;2023-08-06T11:16:05;90096.84;;;24.33;53.38
6395;BME280;3230;42.588;23.358;2023-08-06T11:18:31;90096.81;;;24.25;55.02
6395;BME280;3230;42.588;23.358;2023-08-06T11:20:59;90099.50;;;24.29;55.12
6395;BME280;3230;42.588;23.358;2023-08-06T11:23:26;90098.34;;;24.26;55.93
6395;BME280;3230;42.588;23.358;2023-08-06T11:25:53;90102.59;;;24.42;56.01
6395;BME280;3230;42.588;23.358;2023-08-06T11:28:19;90094.56;;;24.49;54.85
6395;BME280;3230;42.588;23.358;2023-08-06T11:30:46;90091.13;;;24.59;55.49
6395;BME280;3230;42.588;23.358;2023-08-06T11:33:12;90092.25;;;24.51;54.71
6395;BME280;3230;42.588;23.358;2023-08-06T11:35:37;90098.75;;;24.57;52.86
6395;BME280;3230;42.588;23.358;2023-08-06T11:38:03;90092.25;;;24.48;53.96
6395;BME280;3230;42.588;23.358;2023-08-06T11:40:28;90103.72;;;24.34;54.34
6395;BME280;3230;42.588;23.358;2023-08-06T11:42:54;90091.09;;;24.45;55.29
6395;BME280;3230;42.588;23.358;2023-08-06T11:45:23;90090.75;;;24.39;56.55
6395;BME280;3230;42.588;23.358;2023-08-06T11:47:50;90094.53;;;24.20;56.66
6395;BME280;3230;42.588;23.358;2023-08-06T11:50:25;90085.22;;;23.78;58.71
6395;BME280;3230;42.588;23.358;2023-08-06T11:53:00;90081.03;;;23.84;62.03
6395;BME280;3230;42.588;23.358;2023-08-06T11:55:27;90077.28;;;23.96;67.79
6395;BME280;3230;42.588;23.358;2023-08-06T11:57:54;90075.28;;;23.75;76.78
6395;BME280;3230;42.588;23.358;2023-08-06T12:00:20;90081.00;;;23.77;78.15
6395;BME280;3230;42.588;23.358;2023-08-06T12:02:48;90087.50;;;23.79;77.39
6395;BME280;3230;42.588;23.358;2023-08-06T12:05:22;90091.03;;;23.94;83.91
6395;BME280;3230;42.588;23.358;2023-08-06T12:07:54;90095.56;;;23.90;83.07
6395;BME280;3230;42.588;23.358;2023-08-06T12:10:24;90099.38;;;23.78;81.46
6395;BME280;3230;42.588;23.358;2023-08-06T12:12:50;90094.84;;;23.93;77.63
6395;BME280;3230;42.588;23.358;2023-08-06T12:15:16;90082.69;;;24.29;71.98
6395;BME280;3230;42.588;23.358;2023-08-06T12:17:41;90085.03;;;24.66;67.56
6395;BME280;3230;42.588;23.358;2023-08-06T12:20:08;90089.56;;;24.44;63.48
6395;BME280;3230;42.588;23.358;2023-08-06T12:22:34;90093.78;;;24.52;68.37
6395;BME280;3230;42.588;23.358;2023-08-06T12:25:05;90093.81;;;24.70;62.99
6395;BME280;3230;42.588;23.358;2023-08-06T12:27:37;90091.47;;;25.01;61.62
6395;BME280;3230;42.588;23.358;2023-08-06T12:30:04;90088.03;;;25.15;62.81
6395;BME280;3230;42.588;23.358;2023-08-06T12:32:30;90097.63;;;24.80;61.15
6395;BME280;3230;42.588;23.358;2023-08-06T12:34:55;90097.25;;;24.85;59.36
6395;BME280;3230;42.588;23.358;2023-08-06T12:37:21;90102.59;;;24.67;60.80
6395;BME280;3230;42.588;23.358;2023-08-06T12:39:46;90111.78;;;24.48;60.29
6395;BME280;3230;42.588;23.358;2023-08-06T12:42:12;90111.00;;;24.55;61.66
6395;BME280;3230;42.588;23.358;2023-08-06T12:44:37;90102.94;;;24.22;62.29
6395;BME280;3230;42.588;23.358;2023-08-06T12:47:03;90104.84;;;24.22;65.16
6395;BME280;3230;42.588;23.358;2023-08-06T12:49:28;90108.69;;;24.42;64.53
6395;BME280;3230;42.588;23.358;2023-08-06T12:51:54;90110.63;;;24.46;66.10
6395;BME280;3230;42.588;23.358;2023-08-06T12:54:22;90106.41;;;24.30;65.10
6395;BME280;3230;42.588;23.358;2023-08-06T12:56:48;90106.75;;;24.14;65.93
6395;BME280;3230;42.588;23.358;2023-08-06T12:59:15;90099.88;;;24.20;65.77
6395;BME280;3230;42.588;23.358;2023-08-06T13:01:41;90088.78;;;24.25;66.78
6395;BME280;3230;42.588;23.358;2023-08-06T13:04:06;90088.03;;;24.25;65.62
6395;BME280;3230;42.588;23.358;2023-08-06T13:06:32;90093.41;;;24.25;64.73
6395;BME280;3230;42.588;23.358;2023-08-06T13:09:02;90093.75;;;24.23;63.18